Terminal Aerodrome Forecast
Issued by NWS Buffalo, NY

Home | Current Version | Previous Version | Text Only | Print | Product List | Glossary On
Versions: 1 2 3 4 5 6 7 8 9 10 11 12 13 14 15 16 17 18 19 20 21 22 23 24 25 26
000
FTUS41 KBUF 222300
TAFART
TAF
KART 222336Z 2300/2324 26009KT P6SM OVC050
     FM230100 26009KT P6SM BKN050
     FM230500 24005KT P6SM FEW050
     FM231400 24009KT P6SM SKC
     FM232200 23006KT P6SM FEW250=

USA.gov is the U.S. government's official web portal to all federal, state and local government web resources and services.